sensor_id;sensor_type;location;lat;lon;timestamp;pressure;altitude;pressure_sealevel;temperature;humidity
8890;BME280;4481;43.406;24.454;2023-04-02T00:01:20;76428.28;;;-144.09;97.72
8890;BME280;4481;43.406;24.454;2023-04-02T00:04:12;76445.00;;;-144.09;98.36
8890;BME280;4481;43.406;24.454;2023-04-02T00:06:41;76419.94;;;-144.09;97.12
8890;BME280;4481;43.406;24.454;2023-04-02T00:09:31;76405.31;;;-144.09;96.96
8890;BME280;4481;43.406;24.454;2023-04-02T00:11:58;76411.56;;;-144.09;96.87
8890;BME280;4481;43.406;24.454;2023-04-02T00:14:45;76405.31;;;-144.09;96.42
8890;BME280;4481;43.406;24.454;2023-04-02T00:17:12;76401.13;;;-144.09;95.81
8890;BME280;4481;43.406;24.454;2023-04-02T00:19:42;76411.56;;;-144.09;96.18
8890;BME280;4481;43.406;24.454;2023-04-02T00:22:15;76394.88;;;-144.09;95.60
8890;BME280;4481;43.406;24.454;2023-04-02T00:24:42;76403.22;;;-144.09;96.15
8890;BME280;4481;43.406;24.454;2023-04-02T00:27:11;76405.31;;;-144.09;96.19
8890;BME280;4481;43.406;24.454;2023-04-02T00:29:44;76401.13;;;-144.09;95.53
8890;BME280;4481;43.406;24.454;2023-04-02T00:32:17;76394.88;;;-144.09;95.97
8890;BME280;4481;43.406;24.454;2023-04-02T00:34:45;76409.50;;;-144.09;96.48
8890;BME280;4481;43.406;24.454;2023-04-02T00:37:16;76388.59;;;-144.09;95.34
8890;BME280;4481;43.406;24.454;2023-04-02T00:39:49;76390.69;;;-144.09;95.33
8890;BME280;4481;43.406;24.454;2023-04-02T00:42:16;76382.31;;;-144.09;95.15
8890;BME280;4481;43.406;24.454;2023-04-02T00:44:44;76403.22;;;-144.09;95.30
8890;BME280;4481;43.406;24.454;2023-04-02T00:47:14;76380.25;;;-144.09;95.04
8890;BME280;4481;43.406;24.454;2023-04-02T00:49:43;76386.50;;;-144.09;94.79
8890;BME280;4481;43.406;24.454;2023-04-02T00:52:11;76369.78;;;-144.09;94.57
8890;BME280;4481;43.406;24.454;2023-04-02T00:54:43;76359.34;;;-144.09;94.01
8890;BME280;4481;43.406;24.454;2023-04-02T00:57:16;76353.06;;;-144.09;94.14
8890;BME280;4481;43.406;24.454;2023-04-02T00:59:53;76363.53;;;-144.09;94.53
8890;BME280;4481;43.406;24.454;2023-04-02T01:02:28;76350.97;;;-144.09;94.06
8890;BME280;4481;43.406;24.454;2023-04-02T01:04:55;76353.06;;;-144.09;94.39
8890;BME280;4481;43.406;24.454;2023-04-02T01:07:34;76350.97;;;-144.09;94.35
8890;BME280;4481;43.406;24.454;2023-04-02T01:10:17;76346.81;;;-144.09;94.04
8890;BME280;4481;43.406;24.454;2023-04-02T01:12:59;76340.53;;;-144.09;93.58
8890;BME280;4481;43.406;24.454;2023-04-02T01:15:36;76344.72;;;-144.09;92.99
8890;BME280;4481;43.406;24.454;2023-04-02T01:18:27;76328.00;;;-144.09;92.61
8890;BME280;4481;43.406;24.454;2023-04-02T01:24:00;76346.81;;;-144.09;93.65
8890;BME280;4481;43.406;24.454;2023-04-02T01:26:38;76344.72;;;-144.09;93.27
8890;BME280;4481;43.406;24.454;2023-04-02T01:29:09;76350.97;;;-144.09;93.63
8890;BME280;4481;43.406;24.454;2023-04-02T01:31:38;76350.97;;;-144.09;93.63
8890;BME280;4481;43.406;24.454;2023-04-02T01:34:07;76353.06;;;-144.09;94.13
8890;BME280;4481;43.406;24.454;2023-04-02T01:36:40;76359.34;;;-144.09;94.89
8890;BME280;4481;43.406;24.454;2023-04-02T01:39:18;76350.97;;;-144.09;94.50
8890;BME280;4481;43.406;24.454;2023-04-02T01:41:48;76355.16;;;-144.09;94.35
8890;BME280;4481;43.406;24.454;2023-04-02T01:44:23;76361.44;;;-144.09;95.44
8890;BME280;4481;43.406;24.454;2023-04-02T01:46:51;76363.53;;;-144.09;95.25
8890;BME280;4481;43.406;24.454;2023-04-02T01:49:20;76363.53;;;-144.09;95.36
8890;BME280;4481;43.406;24.454;2023-04-02T01:51:50;76369.78;;;-144.09;95.32
8890;BME280;4481;43.406;24.454;2023-04-02T01:54:18;76378.16;;;-144.09;95.91
8890;BME280;4481;43.406;24.454;2023-04-02T01:56:46;76363.53;;;-144.09;94.48
8890;BME280;4481;43.406;24.454;2023-04-02T01:59:13;76363.53;;;-144.09;94.70
8890;BME280;4481;43.406;24.454;2023-04-02T02:01:43;76367.69;;;-144.09;94.50
8890;BME280;4481;43.406;24.454;2023-04-02T02:04:14;76359.34;;;-144.09;93.68
8890;BME280;4481;43.406;24.454;2023-04-02T02:06:42;76353.06;;;-144.09;93.12
8890;BME280;4481;43.406;24.454;2023-04-02T02:09:14;76344.72;;;-144.09;93.00
8890;BME280;4481;43.406;24.454;2023-04-02T02:11:42;76361.44;;;-144.09;93.75
8890;BME280;4481;43.406;24.454;2023-04-02T02:14:14;76336.34;;;-144.09;92.51
8890;BME280;4481;43.406;24.454;2023-04-02T02:16:42;76336.34;;;-144.09;92.09
8890;BME280;4481;43.406;24.454;2023-04-02T02:19:19;76332.19;;;-144.09;91.57
8890;BME280;4481;43.406;24.454;2023-04-02T02:21:49;76348.91;;;-144.09;93.12
8890;BME280;4481;43.406;24.454;2023-04-02T02:24:19;76328.00;;;-144.09;92.50
8890;BME280;4481;43.406;24.454;2023-04-02T02:26:47;76344.72;;;-144.09;92.60
8890;BME280;4481;43.406;24.454;2023-04-02T02:29:17;76353.06;;;-144.09;92.61
8890;BME280;4481;43.406;24.454;2023-04-02T02:31:46;76346.81;;;-144.09;92.45
8890;BME280;4481;43.406;24.454;2023-04-02T02:34:19;76332.19;;;-144.09;91.94
8890;BME280;4481;43.406;24.454;2023-04-02T02:36:51;76342.63;;;-144.09;91.96
8890;BME280;4481;43.406;24.454;2023-04-02T02:39:22;76353.06;;;-144.09;92.16
8890;BME280;4481;43.406;24.454;2023-04-02T02:41:53;76344.72;;;-144.09;92.24
8890;BME280;4481;43.406;24.454;2023-04-02T02:44:23;76334.28;;;-144.09;91.64
8890;BME280;4481;43.406;24.454;2023-04-02T02:46:55;76330.09;;;-144.09;91.89
8890;BME280;4481;43.406;24.454;2023-04-02T02:49:26;76332.19;;;-144.09;91.66
8890;BME280;4481;43.406;24.454;2023-04-02T02:51:57;76344.72;;;-144.09;91.95
8890;BME280;4481;43.406;24.454;2023-04-02T02:54:26;76344.72;;;-144.09;91.96
8890;BME280;4481;43.406;24.454;2023-04-02T02:56:55;76350.97;;;-144.09;92.29
8890;BME280;4481;43.406;24.454;2023-04-02T02:59:22;76344.72;;;-144.09;91.81
8890;BME280;4481;43.406;24.454;2023-04-02T03:01:49;76334.28;;;-144.09;91.46
8890;BME280;4481;43.406;24.454;2023-04-02T03:04:20;76346.81;;;-144.09;92.32
8890;BME280;4481;43.406;24.454;2023-04-02T03:06:47;76348.91;;;-144.09;92.02
8890;BME280;4481;43.406;24.454;2023-04-02T03:09:19;76340.53;;;-144.09;91.78
8890;BME280;4481;43.406;24.454;2023-04-02T03:11:51;76332.19;;;-144.09;91.61
8890;BME280;4481;43.406;24.454;2023-04-02T03:14:25;76348.91;;;-144.09;92.18
8890;BME280;4481;43.406;24.454;2023-04-02T03:16:58;76359.34;;;-144.09;92.61
8890;BME280;4481;43.406;24.454;2023-04-02T03:19:31;76353.06;;;-144.09;92.22
8890;BME280;4481;43.406;24.454;2023-04-02T03:22:06;76367.69;;;-144.09;92.90
8890;BME280;4481;43.406;24.454;2023-04-02T03:24:37;76376.06;;;-144.09;92.68
8890;BME280;4481;43.406;24.454;2023-04-02T03:27:11;76390.69;;;-144.09;93.50
8890;BME280;4481;43.406;24.454;2023-04-02T03:29:40;76396.94;;;-144.09;93.80
8890;BME280;4481;43.406;24.454;2023-04-02T03:32:15;76390.69;;;-144.09;93.30
8890;BME280;4481;43.406;24.454;2023-04-02T03:34:45;76390.69;;;-144.09;93.63
8890;BME280;4481;43.406;24.454;2023-04-02T03:37:16;76409.50;;;-144.09;93.67
8890;BME280;4481;43.406;24.454;2023-04-02T03:39:46;76409.50;;;-144.09;93.71
8890;BME280;4481;43.406;24.454;2023-04-02T03:42:19;76419.94;;;-144.09;94.12
8890;BME280;4481;43.406;24.454;2023-04-02T03:44:49;76411.56;;;-144.09;93.39
8890;BME280;4481;43.406;24.454;2023-04-02T03:47:19;76401.13;;;-144.09;93.38
8890;BME280;4481;43.406;24.454;2023-04-02T03:49:55;76415.75;;;-144.09;93.46
8890;BME280;4481;43.406;24.454;2023-04-02T03:52:24;76417.84;;;-144.09;93.69
8890;BME280;4481;43.406;24.454;2023-04-02T03:54:53;76419.94;;;-144.09;93.58
8890;BME280;4481;43.406;24.454;2023-04-02T03:57:24;76428.28;;;-144.09;94.23
8890;BME280;4481;43.406;24.454;2023-04-02T03:59:56;76465.91;;;-144.09;95.22
8890;BME280;4481;43.406;24.454;2023-04-02T04:02:33;76495.16;;;-144.09;96.43
8890;BME280;4481;43.406;24.454;2023-04-02T04:05:02;76488.88;;;-144.09;96.32
8890;BME280;4481;43.406;24.454;2023-04-02T04:07:34;76468.00;;;-144.09;95.61
8890;BME280;4481;43.406;24.454;2023-04-02T04:10:02;76478.44;;;-144.09;95.82
8890;BME280;4481;43.406;24.454;2023-04-02T04:12:31;76472.19;;;-144.09;95.56
8890;BME280;4481;43.406;24.454;2023-04-02T04:15:03;76470.09;;;-144.09;95.45
8890;BME280;4481;43.406;24.454;2023-04-02T04:17:35;76465.91;;;-144.09;95.35
8890;BME280;4481;43.406;24.454;2023-04-02T04:20:14;76461.72;;;-144.09;95.14
8890;BME280;4481;43.406;24.454;2023-04-02T04:22:42;76472.19;;;-144.09;95.81
8890;BME280;4481;43.406;24.454;2023-04-02T04:25:18;76501.44;;;-144.09;96.27
8890;BME280;4481;43.406;24.454;2023-04-02T04:27:54;76497.25;;;-144.09;96.07
8890;BME280;4481;43.406;24.454;2023-04-02T04:30:24;76497.25;;;-144.09;95.94
8890;BME280;4481;43.406;24.454;2023-04-02T04:32:54;76476.34;;;-144.09;95.29
8890;BME280;4481;43.406;24.454;2023-04-02T04:35:25;76480.53;;;-144.09;95.01
8890;BME280;4481;43.406;24.454;2023-04-02T04:37:55;76474.25;;;-144.09;94.65
8890;BME280;4481;43.406;24.454;2023-04-02T04:40:26;76447.09;;;-144.09;94.23
8890;BME280;4481;43.406;24.454;2023-04-02T04:42:56;76430.38;;;-144.09;93.76
8890;BME280;4481;43.406;24.454;2023-04-02T04:45:33;76419.94;;;-144.09;93.09
8890;BME280;4481;43.406;24.454;2023-04-02T04:48:03;76428.28;;;-144.09;93.38
8890;BME280;4481;43.406;24.454;2023-04-02T04:50:32;76465.91;;;-144.09;93.83
8890;BME280;4481;43.406;24.454;2023-04-02T04:53:05;76451.28;;;-144.09;93.73
8890;BME280;4481;43.406;24.454;2023-04-02T04:55:36;76457.53;;;-144.09;93.18
8890;BME280;4481;43.406;24.454;2023-04-02T04:58:10;76453.38;;;-144.09;92.72
8890;BME280;4481;43.406;24.454;2023-04-02T05:00:42;76447.09;;;-144.09;92.55
8890;BME280;4481;43.406;24.454;2023-04-02T05:03:17;76453.38;;;-144.09;92.55
8890;BME280;4481;43.406;24.454;2023-04-02T05:05:49;76455.47;;;-144.09;92.24
8890;BME280;4481;43.406;24.454;2023-04-02T05:08:19;76455.47;;;-144.09;92.21
8890;BME280;4481;43.406;24.454;2023-04-02T05:10:50;76445.00;;;-144.09;91.76
8890;BME280;4481;43.406;24.454;2023-04-02T05:13:20;76463.81;;;-144.09;92.35
8890;BME280;4481;43.406;24.454;2023-04-02T05:15:53;76457.53;;;-144.09;92.25
8890;BME280;4481;43.406;24.454;2023-04-02T05:18:25;76470.09;;;-144.09;92.34
8890;BME280;4481;43.406;24.454;2023-04-02T05:20:58;76451.28;;;-144.09;91.96
8890;BME280;4481;43.406;24.454;2023-04-02T05:23:27;76465.91;;;-144.09;92.38
8890;BME280;4481;43.406;24.454;2023-04-02T05:25:59;76447.09;;;-144.09;91.94
8890;BME280;4481;43.406;24.454;2023-04-02T05:28:32;76457.53;;;-144.09;91.94
8890;BME280;4481;43.406;24.454;2023-04-02T05:31:02;76445.00;;;-144.09;92.03
8890;BME280;4481;43.406;24.454;2023-04-02T05:33:32;76426.22;;;-144.09;91.58
8890;BME280;4481;43.406;24.454;2023-04-02T05:36:03;76422.03;;;-144.09;91.42
8890;BME280;4481;43.406;24.454;2023-04-02T05:38:33;76434.56;;;-144.09;91.84
8890;BME280;4481;43.406;24.454;2023-04-02T05:41:02;76430.38;;;-144.09;91.63
8890;BME280;4481;43.406;24.454;2023-04-02T05:43:32;76396.94;;;-144.09;90.48
8890;BME280;4481;43.406;24.454;2023-04-02T05:46:02;76401.13;;;-144.09;91.00
8890;BME280;4481;43.406;24.454;2023-04-02T05:48:35;76369.78;;;-144.09;90.53
8890;BME280;4481;43.406;24.454;2023-04-02T05:51:05;76359.34;;;-144.09;90.11
8890;BME280;4481;43.406;24.454;2023-04-02T05:53:33;76330.09;;;-144.09;88.79
8890;BME280;4481;43.406;24.454;2023-04-02T05:56:05;76300.84;;;-144.09;88.67
8890;BME280;4481;43.406;24.454;2023-04-02T05:58:37;76277.84;;;-144.09;87.28
8890;BME280;4481;43.406;24.454;2023-04-02T06:01:18;76244.44;;;-144.09;86.78
8890;BME280;4481;43.406;24.454;2023-04-02T06:03:54;76213.09;;;-144.09;84.98
8890;BME280;4481;43.406;24.454;2023-04-02T06:06:30;76179.66;;;-144.09;84.43
8890;BME280;4481;43.406;24.454;2023-04-02T06:09:00;76154.59;;;-144.09;83.55
8890;BME280;4481;43.406;24.454;2023-04-02T06:11:31;76125.34;;;-144.09;83.50
8890;BME280;4481;43.406;24.454;2023-04-02T06:14:02;76087.72;;;-144.09;82.81
8890;BME280;4481;43.406;24.454;2023-04-02T06:16:29;76064.75;;;-144.09;82.51
8890;BME280;4481;43.406;24.454;2023-04-02T06:18:57;76043.84;;;-144.09;80.87
8890;BME280;4481;43.406;24.454;2023-04-02T06:21:25;76016.69;;;-144.09;80.77
8890;BME280;4481;43.406;24.454;2023-04-02T06:23:54;76010.44;;;-144.09;79.03
8890;BME280;4481;43.406;24.454;2023-04-02T06:26:24;75995.81;;;-144.09;75.24
8890;BME280;4481;43.406;24.454;2023-04-02T06:28:56;75999.97;;;-144.09;72.79
8890;BME280;4481;43.406;24.454;2023-04-02T06:31:29;76008.34;;;-144.09;69.29
8890;BME280;4481;43.406;24.454;2023-04-02T06:33:58;75985.34;;;-144.09;68.15
8890;BME280;4481;43.406;24.454;2023-04-02T06:36:26;75974.91;;;-144.09;66.62
8890;BME280;4481;43.406;24.454;2023-04-02T06:38:54;75956.09;;;-144.09;67.05
8890;BME280;4481;43.406;24.454;2023-04-02T06:41:23;75962.38;;;-144.09;67.98
8890;BME280;4481;43.406;24.454;2023-04-02T06:43:52;75947.75;;;-144.09;66.88
8890;BME280;4481;43.406;24.454;2023-04-02T06:46:24;75926.84;;;-144.09;66.89
8890;BME280;4481;43.406;24.454;2023-04-02T06:48:55;75951.94;;;-144.09;67.51
8890;BME280;4481;43.406;24.454;2023-04-02T06:51:25;75937.31;;;-144.09;67.58
8890;BME280;4481;43.406;24.454;2023-04-02T06:53:52;75956.09;;;-144.09;66.74
8890;BME280;4481;43.406;24.454;2023-04-02T06:56:26;75947.75;;;-144.09;66.10
8890;BME280;4481;43.406;24.454;2023-04-02T06:58:56;75931.03;;;-144.09;66.09
8890;BME280;4481;43.406;24.454;2023-04-02T07:01:25;75922.69;;;-144.09;66.24
8890;BME280;4481;43.406;24.454;2023-04-02T07:03:53;75939.38;;;-144.09;65.61
8890;BME280;4481;43.406;24.454;2023-04-02T07:06:20;75951.94;;;-144.09;66.64
8890;BME280;4481;43.406;24.454;2023-04-02T07:08:48;75943.56;;;-144.09;66.38
8890;BME280;4481;43.406;24.454;2023-04-02T07:11:15;75968.63;;;-144.09;66.82
8890;BME280;4481;43.406;24.454;2023-04-02T07:13:41;75943.56;;;-144.09;66.67
8890;BME280;4481;43.406;24.454;2023-04-02T07:16:11;75920.59;;;-144.09;66.54
8890;BME280;4481;43.406;24.454;2023-04-02T07:18:39;75931.03;;;-144.09;66.35
8890;BME280;4481;43.406;24.454;2023-04-02T07:21:05;75931.03;;;-144.09;66.66
8890;BME280;4481;43.406;24.454;2023-04-02T07:23:31;75947.75;;;-144.09;66.96
8890;BME280;4481;43.406;24.454;2023-04-02T07:25:58;75941.47;;;-144.09;66.89
8890;BME280;4481;43.406;24.454;2023-04-02T07:28:27;75945.66;;;-144.09;67.62
8890;BME280;4481;43.406;24.454;2023-04-02T07:30:53;75945.66;;;-144.09;67.33
8890;BME280;4481;43.406;24.454;2023-04-02T07:33:22;75912.22;;;-144.09;66.40
8890;BME280;4481;43.406;24.454;2023-04-02T07:35:49;75912.22;;;-144.09;66.24
8890;BME280;4481;43.406;24.454;2023-04-02T07:38:16;75920.59;;;-144.09;66.76
8890;BME280;4481;43.406;24.454;2023-04-02T07:40:42;75926.84;;;-144.09;66.99
8890;BME280;4481;43.406;24.454;2023-04-02T07:43:09;75905.97;;;-144.09;67.42
8890;BME280;4481;43.406;24.454;2023-04-02T07:45:36;75922.69;;;-144.09;66.73
8890;BME280;4481;43.406;24.454;2023-04-02T07:48:04;75912.22;;;-144.09;67.28
8890;BME280;4481;43.406;24.454;2023-04-02T07:50:31;75872.53;;;-144.09;67.38
8890;BME280;4481;43.406;24.454;2023-04-02T07:52:57;75853.72;;;-144.09;65.92
8890;BME280;4481;43.406;24.454;2023-04-02T07:55:23;75851.66;;;-144.09;65.55
8890;BME280;4481;43.406;24.454;2023-04-02T07:57:51;75887.16;;;-144.09;66.09
8890;BME280;4481;43.406;24.454;2023-04-02T08:00:19;75866.28;;;-144.09;66.61
8890;BME280;4481;43.406;24.454;2023-04-02T08:02:46;75868.34;;;-144.09;66.54
8890;BME280;4481;43.406;24.454;2023-04-02T08:05:12;75876.72;;;-144.09;66.79
8890;BME280;4481;43.406;24.454;2023-04-02T08:07:39;75874.63;;;-144.09;66.83
8890;BME280;4481;43.406;24.454;2023-04-02T08:10:07;75880.91;;;-144.09;67.29
8890;BME280;4481;43.406;24.454;2023-04-02T08:12:34;75862.09;;;-144.09;67.90
8890;BME280;4481;43.406;24.454;2023-04-02T08:15:00;75853.72;;;-144.09;66.77
8890;BME280;4481;43.406;24.454;2023-04-02T08:17:28;75847.47;;;-144.09;66.83
8890;BME280;4481;43.406;24.454;2023-04-02T08:19:56;75824.50;;;-144.09;67.48
8890;BME280;4481;43.406;24.454;2023-04-02T08:22:25;75807.78;;;-144.09;66.24
8890;BME280;4481;43.406;24.454;2023-04-02T08:24:52;75791.06;;;-144.09;65.82
8890;BME280;4481;43.406;24.454;2023-04-02T08:27:18;75811.97;;;-144.09;65.53
8890;BME280;4481;43.406;24.454;2023-04-02T08:29:44;75830.75;;;-144.09;65.54
8890;BME280;4481;43.406;24.454;2023-04-02T08:32:11;75818.22;;;-144.09;64.91
8890;BME280;4481;43.406;24.454;2023-04-02T08:34:41;75843.28;;;-144.09;66.33
8890;BME280;4481;43.406;24.454;2023-04-02T08:37:09;75818.22;;;-144.09;65.84
8890;BME280;4481;43.406;24.454;2023-04-02T08:39:36;75816.13;;;-144.09;64.84
8890;BME280;4481;43.406;24.454;2023-04-02T08:42:07;75801.50;;;-144.09;64.66
8890;BME280;4481;43.406;24.454;2023-04-02T08:44:45;75814.03;;;-144.09;65.47
8890;BME280;4481;43.406;24.454;2023-04-02T08:47:17;75809.88;;;-144.09;65.61
8890;BME280;4481;43.406;24.454;2023-04-02T08:49:51;75797.34;;;-144.09;64.29
8890;BME280;4481;43.406;24.454;2023-04-02T08:52:22;75782.72;;;-144.09;64.76
8890;BME280;4481;43.406;24.454;2023-04-02T08:54:49;75759.72;;;-144.09;62.93
8890;BME280;4481;43.406;24.454;2023-04-02T08:57:21;75751.38;;;-144.09;63.34
8890;BME280;4481;43.406;24.454;2023-04-02T08:59:56;75768.09;;;-144.09;64.01
8890;BME280;4481;43.406;24.454;2023-04-02T09:02:29;75761.81;;;-144.09;63.35
8890;BME280;4481;43.406;24.454;2023-04-02T09:04:57;75763.91;;;-144.09;63.24
8890;BME280;4481;43.406;24.454;2023-04-02T09:07:25;75766.00;;;-144.09;61.48
8890;BME280;4481;43.406;24.454;2023-04-02T09:09:53;75774.34;;;-144.09;60.84
8890;BME280;4481;43.406;24.454;2023-04-02T09:12:24;75774.34;;;-144.09;61.29
8890;BME280;4481;43.406;24.454;2023-04-02T09:15:02;75755.53;;;-144.09;61.69
8890;BME280;4481;43.406;24.454;2023-04-02T09:17:31;75747.19;;;-144.09;61.22
8890;BME280;4481;43.406;24.454;2023-04-02T09:20:01;75755.53;;;-144.09;60.36
8890;BME280;4481;43.406;24.454;2023-04-02T09:22:31;75776.44;;;-144.09;59.75
8890;BME280;4481;43.406;24.454;2023-04-02T09:25:00;75776.44;;;-144.09;60.92
8890;BME280;4481;43.406;24.454;2023-04-02T09:27:29;75770.16;;;-144.09;61.59
8890;BME280;4481;43.406;24.454;2023-04-02T09:29:57;75776.44;;;-144.09;60.59
8890;BME280;4481;43.406;24.454;2023-04-02T09:32:44;75778.53;;;-144.09;61.71
8890;BME280;4481;43.406;24.454;2023-04-02T09:35:15;75751.38;;;-144.09;61.58
8890;BME280;4481;43.406;24.454;2023-04-02T09:37:42;75736.75;;;-144.09;60.89
8890;BME280;4481;43.406;24.454;2023-04-02T09:40:16;75709.59;;;-144.09;60.41
8890;BME280;4481;43.406;24.454;2023-04-02T09:42:43;75694.97;;;-144.09;60.05
8890;BME280;4481;43.406;24.454;2023-04-02T09:45:13;75709.59;;;-144.09;58.92
8890;BME280;4481;43.406;24.454;2023-04-02T09:47:40;75692.88;;;-144.09;58.51
8890;BME280;4481;43.406;24.454;2023-04-02T09:50:22;75684.53;;;-144.09;58.70
8890;BME280;4481;43.406;24.454;2023-04-02T09:52:50;75661.53;;;-144.09;58.40
8890;BME280;4481;43.406;24.454;2023-04-02T09:55:21;75655.28;;;-144.09;59.06
8890;BME280;4481;43.406;24.454;2023-04-02T09:57:50;75646.91;;;-144.09;57.53
8890;BME280;4481;43.406;24.454;2023-04-02T10:00:19;75632.28;;;-144.09;58.29
8890;BME280;4481;43.406;24.454;2023-04-02T10:03:00;75613.50;;;-144.09;59.01
8890;BME280;4481;43.406;24.454;2023-04-02T10:05:29;75598.88;;;-144.09;57.01
8890;BME280;4481;43.406;24.454;2023-04-02T10:08:05;75588.44;;;-144.09;56.51
8890;BME280;4481;43.406;24.454;2023-04-02T10:10:36;75594.69;;;-144.09;56.55
8890;BME280;4481;43.406;24.454;2023-04-02T10:13:07;75619.75;;;-144.09;57.41
8890;BME280;4481;43.406;24.454;2023-04-02T10:15:38;75598.88;;;-144.09;56.80
8890;BME280;4481;43.406;24.454;2023-04-02T10:18:11;75603.06;;;-144.09;56.51
8890;BME280;4481;43.406;24.454;2023-04-02T10:20:41;75630.22;;;-144.09;54.98
8890;BME280;4481;43.406;24.454;2023-04-02T10:23:14;75657.38;;;-144.09;55.99
8890;BME280;4481;43.406;24.454;2023-04-02T10:25:48;75651.09;;;-144.09;55.58
8890;BME280;4481;43.406;24.454;2023-04-02T10:28:22;75636.47;;;-144.09;56.62
8890;BME280;4481;43.406;24.454;2023-04-02T10:30:58;75613.50;;;-144.09;56.93
8890;BME280;4481;43.406;24.454;2023-04-02T10:33:31;75590.50;;;-144.09;56.26
8890;BME280;4481;43.406;24.454;2023-04-02T10:36:07;75621.84;;;-144.09;53.40
8890;BME280;4481;43.406;24.454;2023-04-02T10:38:41;75642.75;;;-144.09;53.10
8890;BME280;4481;43.406;24.454;2023-04-02T10:41:17;75655.28;;;-144.09;54.75
8890;BME280;4481;43.406;24.454;2023-04-02T10:46:57;75640.66;;;-144.09;56.45
8890;BME280;4481;43.406;24.454;2023-04-02T10:49:32;75651.09;;;-144.09;57.85
8890;BME280;4481;43.406;24.454;2023-04-02T10:52:07;75611.41;;;-144.09;56.47
8890;BME280;4481;43.406;24.454;2023-04-02T10:54:41;75638.56;;;-144.09;53.57
8890;BME280;4481;43.406;24.454;2023-04-02T10:57:18;75684.53;;;-144.09;54.08
8890;BME280;4481;43.406;24.454;2023-04-02T10:59:51;75694.97;;;-144.09;53.92
8890;BME280;4481;43.406;24.454;2023-04-02T11:02:35;75709.59;;;-144.09;55.64
8890;BME280;4481;43.406;24.454;2023-04-02T11:05:12;75690.78;;;-144.09;54.88
8890;BME280;4481;43.406;24.454;2023-04-02T11:07:51;75678.25;;;-144.09;53.94
8890;BME280;4481;43.406;24.454;2023-04-02T11:10:19;75657.38;;;-144.09;55.65
8890;BME280;4481;43.406;24.454;2023-04-02T11:12:50;75623.94;;;-144.09;54.08
8890;BME280;4481;43.406;24.454;2023-04-02T11:15:18;75638.56;;;-144.09;53.78
8890;BME280;4481;43.406;24.454;2023-04-02T11:17:45;75684.53;;;-144.09;54.07
8890;BME280;4481;43.406;24.454;2023-04-02T11:20:53;75674.06;;;-144.09;55.22
8890;BME280;4481;43.406;24.454;2023-04-02T11:23:21;75680.34;;;-144.09;56.92
8890;BME280;4481;43.406;24.454;2023-04-02T11:25:52;75682.44;;;-144.09;55.69
8890;BME280;4481;43.406;24.454;2023-04-02T11:28:38;75694.97;;;-144.09;56.59
8890;BME280;4481;43.406;24.454;2023-04-02T11:31:04;75717.94;;;-144.09;55.37
8890;BME280;4481;43.406;24.454;2023-04-02T11:33:38;75711.69;;;-144.09;55.85
8890;BME280;4481;43.406;24.454;2023-04-02T11:39:10;75703.31;;;-144.09;53.30
8890;BME280;4481;43.406;24.454;2023-04-02T11:42:00;75690.78;;;-144.09;53.96
8890;BME280;4481;43.406;24.454;2023-04-02T11:44:27;75684.53;;;-144.09;54.70
8890;BME280;4481;43.406;24.454;2023-04-02T11:47:13;75672.00;;;-144.09;54.61
8890;BME280;4481;43.406;24.454;2023-04-02T11:49:56;75630.22;;;-144.09;54.93
8890;BME280;4481;43.406;24.454;2023-04-02T11:52:26;75613.50;;;-144.09;52.18
8890;BME280;4481;43.406;24.454;2023-04-02T11:54:58;75613.50;;;-144.09;52.64
8890;BME280;4481;43.406;24.454;2023-04-02T11:57:48;75611.41;;;-144.09;51.80
8890;BME280;4481;43.406;24.454;2023-04-02T12:00:22;75588.44;;;-144.09;52.36
8890;BME280;4481;43.406;24.454;2023-04-02T12:03:06;75567.53;;;-144.09;53.85
8890;BME280;4481;43.406;24.454;2023-04-02T12:05:39;75561.28;;;-144.09;51.17
8890;BME280;4481;43.406;24.454;2023-04-02T12:08:27;75594.69;;;-144.09;51.36
8890;BME280;4481;43.406;24.454;2023-04-02T12:11:00;75596.78;;;-144.09;52.24
8890;BME280;4481;43.406;24.454;2023-04-02T12:13:46;75584.25;;;-144.09;51.17
8890;BME280;4481;43.406;24.454;2023-04-02T12:16:13;75594.69;;;-144.09;49.87
8890;BME280;4481;43.406;24.454;2023-04-02T12:18:42;75573.81;;;-144.09;49.30
8890;BME280;4481;43.406;24.454;2023-04-02T12:21:14;75542.47;;;-144.09;49.22
8890;BME280;4481;43.406;24.454;2023-04-02T12:23:44;75542.47;;;-144.09;50.05
8890;BME280;4481;43.406;24.454;2023-04-02T12:26:25;75517.41;;;-144.09;51.24
8890;BME280;4481;43.406;24.454;2023-04-02T12:28:52;75469.34;;;-144.09;49.94
8890;BME280;4481;43.406;24.454;2023-04-02T12:31:21;75446.38;;;-144.09;49.61
8890;BME280;4481;43.406;24.454;2023-04-02T12:33:51;75423.41;;;-144.09;47.96
8890;BME280;4481;43.406;24.454;2023-04-02T12:36:19;75448.47;;;-144.09;48.88
8890;BME280;4481;43.406;24.454;2023-04-02T12:38:48;75452.66;;;-144.09;48.93
8890;BME280;4481;43.406;24.454;2023-04-02T12:41:21;75463.09;;;-144.09;49.90
8890;BME280;4481;43.406;24.454;2023-04-02T12:43:56;75454.75;;;-144.09;48.47
8890;BME280;4481;43.406;24.454;2023-04-02T12:46:23;75427.59;;;-144.09;48.77
8890;BME280;4481;43.406;24.454;2023-04-02T12:48:50;75415.03;;;-144.09;48.15
8890;BME280;4481;43.406;24.454;2023-04-02T12:51:17;75431.75;;;-144.09;47.60
8890;BME280;4481;43.406;24.454;2023-04-02T12:53:48;75494.44;;;-144.09;49.24
8890;BME280;4481;43.406;24.454;2023-04-02T12:56:17;75496.50;;;-144.09;51.10
8890;BME280;4481;43.406;24.454;2023-04-02T12:58:52;75525.75;;;-144.09;51.33
8890;BME280;4481;43.406;24.454;2023-04-02T13:01:20;75502.78;;;-144.09;51.64
8890;BME280;4481;43.406;24.454;2023-04-02T13:04:11;75481.88;;;-144.09;50.65
8890;BME280;4481;43.406;24.454;2023-04-02T13:06:38;75471.44;;;-144.09;51.54
8890;BME280;4481;43.406;24.454;2023-04-02T13:09:23;75454.75;;;-144.09;51.03
8890;BME280;4481;43.406;24.454;2023-04-02T13:11:51;75429.66;;;-144.09;50.92
8890;BME280;4481;43.406;24.454;2023-04-02T13:14:19;75465.19;;;-144.09;49.35
8890;BME280;4481;43.406;24.454;2023-04-02T13:16:46;75498.59;;;-144.09;51.19
8890;BME280;4481;43.406;24.454;2023-04-02T13:19:25;75481.88;;;-144.09;51.00
8890;BME280;4481;43.406;24.454;2023-04-02T13:21:53;75475.63;;;-144.09;50.86